createdAt,value
2022-11-30T00:00:31.812Z,101478.84
2022-11-30T00:03:22.752Z,101474.22
2022-11-30T00:06:15.142Z,101476.38
2022-11-30T00:09:04.572Z,101467.91
2022-11-30T00:11:53.873Z,101478.56
2022-11-30T00:14:43.210Z,101477.19
2022-11-30T00:17:32.559Z,101489.69
2022-11-30T00:20:23.263Z,101481.28
2022-11-30T00:23:12.786Z,101485.63
2022-11-30T00:26:03.465Z,101484.00
2022-11-30T00:28:52.764Z,101477.97
2022-11-30T00:31:42.212Z,101484.22
2022-11-30T00:34:31.492Z,101483.41
2022-11-30T00:37:23.183Z,101471.72
2022-11-30T00:40:14.281Z,101485.88
2022-11-30T00:43:03.796Z,101470.09
2022-11-30T00:45:53.126Z,101477.16
2022-11-30T00:48:43.311Z,101466.53
2022-11-30T00:51:32.619Z,101473.88
2022-11-30T00:54:24.234Z,101473.38
2022-11-30T00:57:13.562Z,101469.84
2022-11-30T01:00:02.835Z,101475.53
2022-11-30T01:02:55.781Z,101475.53
2022-11-30T01:05:45.163Z,101481.78
2022-11-30T01:08:34.943Z,101492.66
2022-11-30T01:11:28.275Z,101483.97
2022-11-30T01:14:17.530Z,101496.75
2022-11-30T01:17:06.949Z,101497.81
2022-11-30T01:19:56.306Z,101505.97
2022-11-30T01:22:46.637Z,101500.50
2022-11-30T01:25:38.008Z,101493.44
2022-11-30T01:28:28.918Z,101497.75
2022-11-30T01:31:19.177Z,101493.94
2022-11-30T01:34:08.695Z,101487.94
2022-11-30T01:36:58.062Z,101487.38
2022-11-30T01:39:47.511Z,101490.63
2022-11-30T01:42:38.093Z,101495.75
2022-11-30T01:45:28.883Z,101491.38
2022-11-30T01:48:18.255Z,101480.78
2022-11-30T01:51:07.751Z,101484.03
2022-11-30T01:53:57.091Z,101495.97
2022-11-30T01:56:50.352Z,101492.97
2022-11-30T01:59:39.949Z,101487.78
2022-11-30T02:02:52.937Z,101485.06
2022-11-30T02:05:42.883Z,101480.97
2022-11-30T02:08:33.959Z,101495.69
2022-11-30T02:11:24.800Z,101499.22
2022-11-30T02:14:30.689Z,101506.56
2022-11-30T02:17:29.618Z,101504.66
2022-11-30T02:20:48.403Z,101504.94
2022-11-30T02:24:07.737Z,101507.38
2022-11-30T02:27:13.362Z,101514.13
2022-11-30T02:30:08.604Z,101498.59
2022-11-30T02:33:02.558Z,101512.72
2022-11-30T02:35:55.552Z,101510.00
2022-11-30T02:38:45.144Z,101521.34
2022-11-30T02:41:39.785Z,101518.91
2022-11-30T02:44:30.518Z,101523.53
2022-11-30T02:47:29.362Z,101531.91
2022-11-30T02:50:25.235Z,101532.69
2022-11-30T02:53:14.734Z,101528.59
2022-11-30T02:56:05.070Z,101528.03
2022-11-30T02:58:54.546Z,101525.53
2022-11-30T03:01:43.876Z,101533.94
2022-11-30T03:04:34.624Z,101531.50
2022-11-30T03:07:23.892Z,101534.97
2022-11-30T03:10:13.494Z,101538.50
2022-11-30T03:13:02.886Z,101529.78
2022-11-30T03:15:52.338Z,101532.47
2022-11-30T03:18:42.161Z,101533.56
2022-11-30T03:21:33.084Z,101530.59
2022-11-30T03:24:22.426Z,101522.19
2022-11-30T03:27:11.818Z,101526.00
2022-11-30T03:30:01.128Z,101523.41
2022-11-30T03:32:52.029Z,101524.81
2022-11-30T03:35:41.310Z,101513.19
2022-11-30T03:38:32.427Z,101519.47
2022-11-30T03:41:21.771Z,101529.00
2022-11-30T03:44:12.019Z,101540.47
2022-11-30T03:47:01.285Z,101536.97
2022-11-30T03:49:50.551Z,101534.00
2022-11-30T03:52:39.816Z,101543.59
2022-11-30T03:55:30.474Z,101546.97
2022-11-30T03:58:19.706Z,101548.66
2022-11-30T04:01:12.438Z,101556.59
2022-11-30T04:04:01.708Z,101550.63
2022-11-30T04:06:51.073Z,101560.41
2022-11-30T04:09:40.383Z,101557.94
2022-11-30T04:12:31.315Z,101564.19
2022-11-30T04:15:20.634Z,101564.69
2022-11-30T04:18:09.908Z,101567.94
2022-11-30T04:21:01.393Z,101563.81
2022-11-30T04:23:50.659Z,101566.22
2022-11-30T04:26:39.956Z,101561.28
2022-11-30T04:29:30.584Z,101556.38
2022-11-30T04:32:19.865Z,101559.06
2022-11-30T04:35:11.500Z,101556.88
2022-11-30T04:38:01.283Z,101557.72
2022-11-30T04:40:50.571Z,101566.53
2022-11-30T04:43:39.974Z,101566.06
2022-11-30T04:46:30.770Z,101557.69
2022-11-30T04:49:20.204Z,101557.19
2022-11-30T04:52:09.438Z,101559.94
2022-11-30T04:54:58.882Z,101562.16
2022-11-30T04:57:48.515Z,101570.84
2022-11-30T05:00:38.431Z,101560.78
2022-11-30T05:03:29.254Z,101571.97
2022-11-30T05:06:18.542Z,101564.59
2022-11-30T05:09:07.846Z,101574.97
2022-11-30T05:11:57.240Z,101557.53
2022-11-30T05:14:46.905Z,101565.16
2022-11-30T05:17:36.548Z,101566.50
2022-11-30T05:20:27.228Z,101559.69
2022-11-30T05:23:16.716Z,101567.56
2022-11-30T05:26:06.482Z,101572.94
2022-11-30T05:28:55.796Z,101561.75
2022-11-30T05:31:45.132Z,101565.00
2022-11-30T05:34:45.832Z,101555.22
2022-11-30T05:37:41.072Z,101557.59
2022-11-30T05:40:32.609Z,101569.03
2022-11-30T05:43:21.915Z,101567.34
2022-11-30T05:46:11.914Z,101564.38
2022-11-30T05:49:01.417Z,101570.38
2022-11-30T05:51:50.633Z,101566.09
2022-11-30T05:54:41.390Z,101566.13
2022-11-30T05:57:30.627Z,101563.97
2022-11-30T06:00:21.846Z,101570.28
2022-11-30T06:03:11.342Z,101570.84
2022-11-30T06:06:00.754Z,101570.28
2022-11-30T06:08:50.960Z,101562.94
2022-11-30T06:11:41.754Z,101568.69
2022-11-30T06:14:31.024Z,101564.88
2022-11-30T06:17:20.272Z,101562.97
2022-11-30T06:20:10.783Z,101555.66
2022-11-30T06:23:00.185Z,101558.66
2022-11-30T06:25:49.487Z,101553.47
2022-11-30T06:28:45.348Z,101564.38
2022-11-30T06:31:37.142Z,101562.72
2022-11-30T06:34:26.358Z,101564.06
2022-11-30T06:37:15.667Z,101573.00
2022-11-30T06:40:07.286Z,101563.22
2022-11-30T06:42:57.229Z,101569.19
2022-11-30T06:45:48.431Z,101568.63
2022-11-30T06:48:37.994Z,101565.66
2022-11-30T06:51:27.369Z,101577.38
2022-11-30T06:54:16.913Z,101582.56
2022-11-30T06:57:06.350Z,101572.47
2022-11-30T06:59:55.735Z,101576.88
2022-11-30T07:02:46.430Z,101585.03
2022-11-30T07:05:40.816Z,101590.25
2022-11-30T07:08:30.081Z,101580.44
2022-11-30T07:11:19.395Z,101583.97
2022-11-30T07:14:08.783Z,101585.88
2022-11-30T07:16:58.327Z,101585.63
2022-11-30T07:19:49.113Z,101588.59
2022-11-30T07:22:38.397Z,101596.78
2022-11-30T07:25:44.840Z,101604.41
2022-11-30T07:28:34.270Z,101608.22
2022-11-30T07:31:26.455Z,101605.22
2022-11-30T07:34:15.759Z,101619.13
2022-11-30T07:37:06.370Z,101619.66
2022-11-30T07:39:55.935Z,101621.31
2022-11-30T07:42:45.188Z,101627.81
2022-11-30T07:45:34.601Z,101627.78
2022-11-30T07:48:24.349Z,101637.00
2022-11-30T07:51:16.289Z,101638.34
2022-11-30T07:54:07.629Z,101638.28
2022-11-30T07:56:56.882Z,101653.53
2022-11-30T07:59:46.507Z,101664.66
2022-11-30T08:02:35.889Z,101657.00
2022-11-30T08:05:25.221Z,101674.09
2022-11-30T08:08:14.557Z,101675.19
2022-11-30T08:11:06.489Z,101664.00
2022-11-30T08:13:56.239Z,101676.81
2022-11-30T08:16:45.545Z,101677.31
2022-11-30T08:19:34.867Z,101683.38
2022-11-30T08:22:24.198Z,101686.16
2022-11-30T08:25:13.477Z,101693.78
2022-11-30T08:28:04.385Z,101705.81
2022-11-30T08:30:53.681Z,101709.94
2022-11-30T08:33:43.480Z,101714.06
2022-11-30T08:36:33.764Z,101717.31
2022-11-30T08:39:23.250Z,101733.16
2022-11-30T08:42:12.516Z,101737.22
2022-11-30T08:45:03.501Z,101715.66
2022-11-30T08:47:52.872Z,101746.28
2022-11-30T08:50:42.365Z,101748.72
2022-11-30T08:53:31.948Z,101757.19
2022-11-30T08:56:23.939Z,101758.84
2022-11-30T08:59:13.195Z,101753.94
2022-11-30T09:02:04.166Z,101756.69
2022-11-30T09:04:53.721Z,101754.78
2022-11-30T09:07:43.014Z,101763.56
2022-11-30T09:10:32.318Z,101756.75
2022-11-30T09:13:21.665Z,101767.94
2022-11-30T09:16:12.673Z,101755.66
2022-11-30T09:19:03.611Z,101774.19
2022-11-30T09:21:53.089Z,101777.47
2022-11-30T09:24:42.734Z,101774.22
2022-11-30T09:27:34.195Z,101777.22
2022-11-30T09:30:23.960Z,101777.19
2022-11-30T09:33:13.233Z,101777.19
2022-11-30T09:36:06.246Z,101775.31
2022-11-30T09:38:56.159Z,101779.38
2022-11-30T09:42:39.599Z,101791.09
2022-11-30T09:45:32.860Z,101788.63
2022-11-30T09:48:43.215Z,101793.53
2022-11-30T09:51:45.635Z,101797.06
2022-11-30T09:54:40.537Z,101803.59
2022-11-30T09:57:36.267Z,101797.03
2022-11-30T10:00:26.794Z,101809.56
2022-11-30T10:03:16.319Z,101808.44
2022-11-30T10:06:11.274Z,101816.06
2022-11-30T10:09:29.155Z,101823.09
2022-11-30T10:12:26.581Z,101832.34
2022-11-30T10:15:42.109Z,101835.00
2022-11-30T10:18:42.391Z,101835.28
2022-11-30T10:21:52.548Z,101829.50
2022-11-30T10:25:08.624Z,101827.00
2022-11-30T10:28:38.642Z,101826.47
2022-11-30T10:31:21.272Z,101841.41
2022-11-30T10:34:22.214Z,101841.34
2022-11-30T10:37:18.603Z,101839.69
2022-11-30T10:40:18.752Z,101849.44
2022-11-30T10:43:20.331Z,101845.88
2022-11-30T10:46:22.086Z,101854.28
2022-11-30T10:49:20.631Z,101854.81
2022-11-30T10:52:13.812Z,101860.56
2022-11-30T10:55:05.048Z,101858.03
2022-11-30T10:58:03.840Z,101855.00
2022-11-30T11:01:03.672Z,101852.00
2022-11-30T11:04:15.833Z,101848.44
2022-11-30T11:07:15.300Z,101849.19
2022-11-30T11:10:05.253Z,101843.94
2022-11-30T11:12:57.137Z,101838.47
2022-11-30T11:16:00.007Z,101839.75
2022-11-30T11:18:56.065Z,101838.41
2022-11-30T11:21:49.414Z,101838.94
2022-11-30T11:24:38.725Z,101840.53
2022-11-30T11:27:31.947Z,101842.44
2022-11-30T11:30:32.249Z,101839.13
2022-11-30T11:33:25.050Z,101850.88
2022-11-30T11:36:26.815Z,101855.75
2022-11-30T11:39:28.316Z,101849.47
2022-11-30T11:42:22.662Z,101860.94
2022-11-30T11:45:19.400Z,101860.94
2022-11-30T11:48:34.851Z,101864.50
2022-11-30T11:51:32.937Z,101856.88
2022-11-30T11:54:28.654Z,101860.94
2022-11-30T11:57:21.241Z,101868.34
2022-11-30T12:00:19.804Z,101855.78
2022-11-30T12:03:20.852Z,101866.72
2022-11-30T12:06:15.555Z,101870.25
2022-11-30T12:09:13.771Z,101860.13
2022-11-30T12:12:03.210Z,101864.25
2022-11-30T12:14:52.530Z,101848.13
2022-11-30T12:17:54.858Z,101844.53
2022-11-30T12:20:55.875Z,101862.03
2022-11-30T12:24:06.395Z,101857.09
2022-11-30T12:27:04.312Z,101860.59
2022-11-30T12:30:09.997Z,101850.47
2022-11-30T12:33:27.625Z,101850.13
2022-11-30T12:36:30.542Z,101851.47
2022-11-30T12:39:31.424Z,101856.88
2022-11-30T12:42:31.380Z,101846.97
2022-11-30T12:45:30.279Z,101847.44
2022-11-30T12:48:32.803Z,101850.13
2022-11-30T12:51:34.133Z,101851.16
2022-11-30T12:54:33.921Z,101847.31
2022-11-30T12:57:28.378Z,101848.06
2022-11-30T13:00:22.596Z,101850.47
2022-11-30T13:03:48.045Z,101830.63
2022-11-30T13:06:45.215Z,101835.63
2022-11-30T13:09:39.618Z,101843.28
2022-11-30T13:12:36.366Z,101829.63
2022-11-30T13:15:29.538Z,101829.84
2022-11-30T13:18:22.005Z,101841.69
2022-11-30T13:21:23.047Z,101839.06
2022-11-30T13:24:22.656Z,101836.44
2022-11-30T13:27:21.373Z,101845.22
2022-11-30T13:30:28.227Z,101827.91
2022-11-30T13:33:50.283Z,101829.56
2022-11-30T13:36:41.417Z,101837.19
2022-11-30T13:39:45.839Z,101846.84
2022-11-30T13:42:44.980Z,101857.09
2022-11-30T13:45:38.759Z,101855.72
2022-11-30T13:48:34.997Z,101851.34
2022-11-30T13:51:39.758Z,101843.19
2022-11-30T13:54:42.403Z,101849.78
2022-11-30T13:58:10.354Z,101851.53
2022-11-30T14:01:28.309Z,101861.44
2022-11-30T14:04:34.587Z,101858.72
2022-11-30T14:07:37.944Z,101854.91
2022-11-30T14:10:32.742Z,101861.00
2022-11-30T14:13:32.675Z,101853.97
2022-11-30T14:16:27.480Z,101856.78
2022-11-30T14:19:17.059Z,101852.09
2022-11-30T14:22:12.072Z,101850.22
2022-11-30T14:25:02.801Z,101853.28
2022-11-30T14:27:59.016Z,101851.41
2022-11-30T14:30:49.775Z,101853.94
2022-11-30T14:33:49.598Z,101859.50
2022-11-30T14:36:46.368Z,101854.97
2022-11-30T14:39:39.137Z,101860.44
2022-11-30T14:42:31.150Z,101861.88
2022-11-30T14:45:25.607Z,101866.03
2022-11-30T14:48:17.898Z,101858.06
2022-11-30T14:51:07.430Z,101866.59
2022-11-30T14:54:06.497Z,101864.75
2022-11-30T14:57:03.920Z,101871.06
2022-11-30T14:59:55.514Z,101867.25
2022-11-30T15:02:47.056Z,101852.56
2022-11-30T15:05:36.768Z,101866.22
2022-11-30T15:08:33.945Z,101866.78
2022-11-30T15:11:24.101Z,101866.78
2022-11-30T15:14:13.633Z,101860.78
2022-11-30T15:17:02.976Z,101864.34
2022-11-30T15:19:54.547Z,101873.38
2022-11-30T15:22:43.793Z,101868.19
2022-11-30T15:25:39.352Z,101873.69
2022-11-30T15:28:35.243Z,101876.72
2022-11-30T15:31:25.620Z,101876.72
2022-11-30T15:34:21.745Z,101874.03
2022-11-30T15:37:12.858Z,101881.66
2022-11-30T15:40:07.256Z,101879.28
2022-11-30T15:42:56.936Z,101886.69
2022-11-30T15:45:55.923Z,101896.56
2022-11-30T15:48:49.127Z,101901.22
2022-11-30T15:51:39.590Z,101905.06
2022-11-30T15:54:48.304Z,101915.78
2022-11-30T15:58:00.834Z,101907.34
2022-11-30T16:01:14.539Z,101919.13
2022-11-30T16:04:08.103Z,101920.50
2022-11-30T16:06:57.690Z,101926.28
2022-11-30T16:09:48.600Z,101929.09
2022-11-30T16:12:38.295Z,101933.16
2022-11-30T16:15:30.637Z,101932.09
2022-11-30T16:18:24.473Z,101924.75
2022-11-30T16:21:17.038Z,101937.88
2022-11-30T16:24:07.390Z,101939.28
2022-11-30T16:26:58.045Z,101935.72
2022-11-30T16:29:52.297Z,101939.31
2022-11-30T16:32:41.888Z,101943.69
2022-11-30T16:35:38.552Z,101941.00
2022-11-30T16:38:28.986Z,101954.13
2022-11-30T16:41:21.241Z,101945.94
2022-11-30T16:44:15.229Z,101952.78
2022-11-30T16:47:04.472Z,101956.34
2022-11-30T16:49:53.877Z,101948.75
2022-11-30T16:52:44.564Z,101963.22
2022-11-30T16:55:37.902Z,101967.88
2022-11-30T16:58:27.237Z,101977.44
2022-11-30T17:01:22.636Z,101980.75
2022-11-30T17:04:17.936Z,101986.78
2022-11-30T17:07:07.273Z,101988.41
2022-11-30T17:09:56.868Z,101994.19
2022-11-30T17:12:46.266Z,102001.03
2022-11-30T17:15:35.584Z,102018.03
2022-11-30T17:18:26.364Z,102009.84
2022-11-30T17:21:20.573Z,102016.94
2022-11-30T17:24:10.207Z,102024.06
2022-11-30T17:27:00.048Z,102024.59
2022-11-30T17:29:49.436Z,102018.59
2022-11-30T17:32:38.703Z,102026.28
2022-11-30T17:35:29.354Z,102038.88
2022-11-30T17:38:18.881Z,102047.09
2022-11-30T17:41:12.992Z,102049.00
2022-11-30T17:44:05.065Z,102043.31
2022-11-30T17:46:54.396Z,102043.81
2022-11-30T17:49:43.974Z,102044.13
2022-11-30T17:52:34.889Z,102036.16
2022-11-30T17:55:24.168Z,102033.72
2022-11-30T17:58:13.462Z,102037.81
2022-11-30T18:01:02.838Z,102029.03
2022-11-30T18:03:53.127Z,102032.88
2022-11-30T18:06:42.639Z,102031.50
2022-11-30T18:09:37.965Z,102039.69
2022-11-30T18:12:30.258Z,102043.53
2022-11-30T18:15:19.948Z,102043.53
2022-11-30T18:18:09.236Z,102051.47
2022-11-30T18:21:05.635Z,102044.59
2022-11-30T18:23:55.276Z,102044.59
2022-11-30T18:26:46.007Z,102037.22
2022-11-30T18:29:35.409Z,102045.44
2022-11-30T18:32:24.671Z,102034.22
2022-11-30T18:35:13.989Z,102033.38
2022-11-30T18:38:03.236Z,102039.69
2022-11-30T18:40:52.754Z,102041.91
2022-11-30T18:43:43.429Z,102040.81
2022-11-30T18:46:32.774Z,102045.47
2022-11-30T18:49:23.654Z,102037.31
2022-11-30T18:52:12.895Z,102047.72
2022-11-30T18:55:02.144Z,102047.19
2022-11-30T18:57:51.724Z,102041.72
2022-11-30T19:00:42.541Z,102053.78
2022-11-30T19:03:31.823Z,102053.78
2022-11-30T19:06:21.518Z,102037.09
2022-11-30T19:09:15.033Z,102047.50
2022-11-30T19:12:04.416Z,102050.75
2022-11-30T19:14:54.254Z,102044.16
2022-11-30T19:17:44.893Z,102035.94
2022-11-30T19:20:40.342Z,102051.53
2022-11-30T19:23:29.796Z,102050.44
2022-11-30T19:26:19.393Z,102052.88
2022-11-30T19:29:09.411Z,102047.16
2022-11-30T19:31:58.764Z,102044.97
2022-11-30T19:34:50.106Z,102056.16
2022-11-30T19:37:40.245Z,102063.03
2022-11-30T19:40:29.619Z,102070.72
2022-11-30T19:43:18.953Z,102085.22
2022-11-30T19:46:10.000Z,102074.28
2022-11-30T19:49:01.986Z,102080.03
2022-11-30T19:51:52.814Z,102094.78
2022-11-30T19:54:42.197Z,102104.13
2022-11-30T19:57:31.774Z,102101.16
2022-11-30T20:00:21.810Z,102119.22
2022-11-30T20:03:12.149Z,102128.53
2022-11-30T20:06:01.613Z,102132.38
2022-11-30T20:08:52.638Z,102153.19
2022-11-30T20:11:42.133Z,102146.91
2022-11-30T20:14:31.464Z,102145.50
2022-11-30T20:17:20.759Z,102153.44
2022-11-30T20:20:11.931Z,102134.25
2022-11-30T20:23:01.303Z,102129.31
2022-11-30T20:25:51.993Z,102130.97
2022-11-30T20:28:41.879Z,102136.44
2022-11-30T20:31:34.513Z,102127.97
2022-11-30T20:34:27.479Z,102138.63
2022-11-30T20:37:20.714Z,102143.28
2022-11-30T20:40:12.315Z,102142.19
2022-11-30T20:43:03.038Z,102149.59
2022-11-30T20:45:52.423Z,102152.31
2022-11-30T20:48:41.936Z,102152.31
2022-11-30T20:51:33.653Z,102157.81
2022-11-30T20:54:23.445Z,102164.41
2022-11-30T20:57:12.734Z,102160.03
2022-11-30T21:00:08.809Z,102167.13
2022-11-30T21:03:01.132Z,102177.81
2022-11-30T21:05:51.240Z,102172.59
2022-11-30T21:08:42.481Z,102160.03
2022-11-30T21:11:32.716Z,102170.19
2022-11-30T21:14:22.256Z,102167.41
2022-11-30T21:17:13.001Z,102168.53
2022-11-30T21:20:02.285Z,102176.16
2022-11-30T21:22:53.846Z,102169.59
2022-11-30T21:25:45.790Z,102179.44
2022-11-30T21:28:38.272Z,102175.34
2022-11-30T21:31:27.957Z,102175.06
2022-11-30T21:34:18.704Z,102171.00
2022-11-30T21:37:07.967Z,102182.47
2022-11-30T21:39:57.294Z,102171.50
2022-11-30T21:42:46.568Z,102169.88
2022-11-30T21:45:36.356Z,102171.00
2022-11-30T21:48:25.689Z,102172.09
2022-11-30T21:51:21.679Z,102181.41
2022-11-30T21:54:14.362Z,102184.44
2022-11-30T21:57:03.788Z,102174.53
2022-11-30T21:59:53.329Z,102184.69
2022-11-30T22:02:42.742Z,102184.69
2022-11-30T22:05:32.095Z,102177.56
2022-11-30T22:08:22.846Z,102166.59
2022-11-30T22:11:14.572Z,102177.03
2022-11-30T22:14:04.945Z,102178.09
2022-11-30T22:16:54.423Z,102175.94
2022-11-30T22:19:43.850Z,102161.13
2022-11-30T22:22:33.380Z,102169.63
2022-11-30T22:25:24.612Z,102178.69
2022-11-30T22:28:14.174Z,102174.84
2022-11-30T22:31:05.043Z,102172.97
2022-11-30T22:33:54.658Z,102178.97
2022-11-30T22:36:45.501Z,102190.50
2022-11-30T22:39:34.887Z,102196.50
2022-11-30T22:42:25.545Z,102188.28
2022-11-30T22:45:14.818Z,102187.47
2022-11-30T22:48:04.106Z,102186.09
2022-11-30T22:50:53.345Z,102175.72
2022-11-30T22:53:44.223Z,102192.16
2022-11-30T22:56:35.549Z,102185.91
2022-11-30T22:59:26.710Z,102187.22
2022-11-30T23:02:16.085Z,102188.59
2022-11-30T23:05:06.367Z,102191.63
2022-11-30T23:07:56.105Z,102196.59
2022-11-30T23:10:45.602Z,102196.53
2022-11-30T23:13:35.441Z,102197.91
2022-11-30T23:16:26.320Z,102202.88
2022-11-30T23:19:16.465Z,102198.47
2022-11-30T23:22:05.884Z,102200.13
2022-11-30T23:24:56.089Z,102197.97
2022-11-30T23:27:45.783Z,102200.72
2022-11-30T23:30:35.200Z,102192.78
2022-11-30T23:33:26.407Z,102190.84
2022-11-30T23:36:18.506Z,102184.28
2022-11-30T23:39:10.816Z,102180.47
2022-11-30T23:42:00.034Z,102174.19
2022-11-30T23:44:49.360Z,102170.91
2022-11-30T23:47:38.627Z,102167.63
2022-11-30T23:50:29.805Z,102162.72
2022-11-30T23:53:19.196Z,102149.88
2022-11-30T23:56:10.798Z,102151.78
2022-11-30T23:59:00.331Z,102158.13
